Time;durP1;ratioP1;P1;durP2;ratioP2;P2;SDS_P1;SDS_P2;PMS_P1;PMS_P2;Temp;Humidity;BMP_temperature;BMP_pressure;BME280_temperature;BME280_humidity;BME280_pressure;Samples;Min_cycle;Max_cycle;Signal;HPM_P1;HPM_P2
2022/09/05 00:01:26;;;;;;;8.50;7.50;;;21.90;99.90;;;;;;5037879;28;20419;-91
2022/09/05 00:04:00;;;;;;;9.83;7.60;;;21.90;99.90;;;;;;5019482;28;20526;-91
2022/09/05 00:06:29;;;;;;;9.60;7.60;;;21.90;99.90;;;;;;5020190;28;20432;-91
2022/09/05 00:09:04;;;;;;;7.90;7.17;;;21.90;99.90;;;;;;5020297;28;20420;-91
2022/09/05 00:11:40;;;;;;;8.67;7.87;;;21.90;99.90;;;;;;5038640;28;20423;-91
2022/09/05 00:14:36;;;;;;;9.07;7.60;;;21.90;99.90;;;;;;5027609;28;20420;-91
2022/09/05 00:17:14;;;;;;;8.47;7.60;;;21.80;99.90;;;;;;5017714;28;20432;-91
2022/09/05 00:19:57;;;;;;;8.50;7.80;;;21.80;99.90;;;;;;5035568;28;20944;-91
2022/09/05 00:22:50;;;;;;;7.40;6.80;;;21.80;99.90;;;;;;5041766;28;20460;-91
2022/09/05 00:25:24;;;;;;;7.70;7.00;;;21.80;99.90;;;;;;5041367;28;20538;-91
2022/09/05 00:28:03;;;;;;;8.87;7.17;;;21.80;99.90;;;;;;5038248;28;20529;-91
2022/09/05 00:30:37;;;;;;;8.63;7.77;;;21.80;99.90;;;;;;5038863;28;20828;-91
2022/09/05 00:33:30;;;;;;;9.33;8.33;;;21.80;99.90;;;;;;5039083;28;20430;-91
2022/09/05 00:36:27;;;;;;;8.90;8.10;;;21.80;99.90;;;;;;5056819;28;20423;-91
2022/09/05 00:39:00;;;;;;;8.60;7.80;;;21.80;99.90;;;;;;5038161;28;20407;-92
2022/09/05 00:41:28;;;;;;;8.97;7.53;;;21.80;99.90;;;;;;5037534;28;20454;-91
2022/09/05 00:43:56;;;;;;;8.37;7.50;;;21.70;99.90;;;;;;5055044;28;20856;-92
2022/09/05 00:46:25;;;;;;;12.20;9.13;;;21.70;99.90;;;;;;5038295;28;20999;-91
2022/09/05 00:49:14;;;;;;;8.67;7.77;;;21.80;99.90;;;;;;5039532;28;20411;-91
2022/09/05 00:51:45;;;;;;;8.37;7.57;;;21.80;99.90;;;;;;5040949;28;20461;-91
2022/09/05 00:54:22;;;;;;;9.57;8.67;;;21.70;99.90;;;;;;5052069;28;20462;-91
2022/09/05 00:57:29;;;;;;;8.17;7.37;;;21.80;99.90;;;;;;5050217;28;20453;-91
2022/09/05 01:00:08;;;;;;;10.10;8.40;;;21.70;99.90;;;;;;5037006;28;20521;-91
2022/09/05 01:02:54;;;;;;;7.50;6.80;;;21.70;99.90;;;;;;5058452;28;20474;-91
2022/09/05 01:05:35;;;;;;;9.80;8.27;;;21.70;99.90;;;;;;5040908;28;20470;-92
2022/09/05 01:08:30;;;;;;;10.40;8.23;;;21.70;99.90;;;;;;5041209;28;20443;-91
2022/09/05 01:11:19;;;;;;;8.80;7.90;;;21.70;99.90;;;;;;5041895;28;20435;-91
2022/09/05 01:14:16;;;;;;;9.00;8.10;;;21.70;99.90;;;;;;5059283;28;20932;-91
2022/09/05 01:17:21;;;;;;;9.20;8.23;;;21.70;99.90;;;;;;5059789;28;20489;-91
2022/09/05 01:20:03;;;;;;;10.30;8.53;;;21.70;99.90;;;;;;5044695;28;20442;-91
2022/09/05 01:22:50;;;;;;;8.17;7.37;;;21.60;99.90;;;;;;5063326;28;20975;-91
2022/09/05 01:25:50;;;;;;;8.03;7.33;;;21.60;99.90;;;;;;5059067;28;20498;-92
2022/09/05 01:28:43;;;;;;;8.17;7.37;;;21.60;99.90;;;;;;5041560;28;20431;-89
2022/09/05 01:31:22;;;;;;;9.17;7.93;;;21.50;99.90;;;;;;5031862;28;20486;-91
2022/09/05 01:33:59;;;;;;;10.20;8.17;;;21.50;99.90;;;;;;5041980;28;20419;-91
2022/09/05 01:36:43;;;;;;;12.77;9.43;;;21.50;99.90;;;;;;5051082;28;20429;-91
2022/09/05 01:39:34;;;;;;;9.00;8.10;;;21.50;99.90;;;;;;5050133;28;20474;-92
2022/09/05 01:42:39;;;;;;;10.10;8.60;;;21.50;99.90;;;;;;5042766;28;20460;-91
2022/09/05 01:45:20;;;;;;;8.83;8.03;;;21.50;99.90;;;;;;5058794;28;20463;-92
2022/09/05 01:48:29;;;;;;;8.80;8.07;;;21.40;99.90;;;;;;5041243;28;20474;-91
2022/09/05 01:50:54;;;;;;;8.73;7.93;;;21.40;99.90;;;;;;5028559;28;20434;-91
2022/09/05 01:53:25;;;;;;;8.33;7.53;;;21.40;99.90;;;;;;5060076;28;20903;-92
2022/09/05 01:56:16;;;;;;;9.27;8.37;;;21.40;99.90;;;;;;5041413;28;20216;-91
2022/09/05 01:58:56;;;;;;;8.17;7.37;;;21.40;99.90;;;;;;5040773;28;20416;-92
2022/09/05 02:01:50;;;;;;;9.40;7.33;;;21.40;99.90;;;;;;5042735;28;20870;-91
2022/09/05 02:04:32;;;;;;;9.40;7.87;;;21.40;99.90;;;;;;5042622;28;20549;-92
2022/09/05 02:07:19;;;;;;;8.73;7.60;;;21.30;99.90;;;;;;5068830;28;20407;-91
2022/09/05 02:10:00;;;;;;;9.00;8.10;;;21.30;99.90;;;;;;5064446;28;20454;-91
2022/09/05 02:12:28;;;;;;;12.10;8.67;;;21.30;99.90;;;;;;5056629;28;20437;-92
2022/09/05 02:15:05;;;;;;;10.23;8.13;;;21.30;99.90;;;;;;5041414;28;20467;-92
2022/09/05 02:17:40;;;;;;;10.40;8.90;;;21.20;99.90;;;;;;5062724;28;20446;-92
2022/09/05 02:20:15;;;;;;;8.37;7.57;;;21.20;99.90;;;;;;5041594;28;20473;-91
2022/09/05 02:22:49;;;;;;;15.30;8.87;;;21.20;99.90;;;;;;5041805;28;20482;-92
2022/09/05 02:25:25;;;;;;;9.40;8.50;;;21.20;99.90;;;;;;5053844;28;20490;-91
2022/09/05 02:28:01;;;;;;;10.60;9.60;;;21.10;99.90;;;;;;5021365;28;20436;-91
2022/09/05 02:30:34;;;;;;;10.07;9.07;;;21.10;99.90;;;;;;5021321;28;21034;-91
2022/09/05 02:33:20;;;;;;;8.87;8.00;;;21.10;99.90;;;;;;5021823;28;20531;-92
2022/09/05 02:36:21;;;;;;;10.10;9.10;;;21.10;99.90;;;;;;5021676;28;20511;-91
2022/09/05 02:38:54;;;;;;;10.57;9.43;;;21.10;99.90;;;;;;5021484;28;20475;-91
2022/09/05 02:41:26;;;;;;;10.47;9.27;;;21.10;99.90;;;;;;5039121;28;20523;-92
2022/09/05 02:44:02;;;;;;;9.73;8.83;;;21.00;99.90;;;;;;5023918;28;20466;-91
2022/09/05 02:46:37;;;;;;;11.30;9.73;;;21.00;99.90;;;;;;5036232;28;20433;-91
2022/09/05 02:49:08;;;;;;;10.40;8.30;;;21.00;99.90;;;;;;5036161;28;20403;-92
2022/09/05 02:51:52;;;;;;;11.03;8.17;;;20.90;99.90;;;;;;5020441;28;20770;-93
2022/09/05 02:54:49;;;;;;;10.03;9.10;;;20.90;99.90;;;;;;5020521;28;20436;-92
2022/09/05 02:57:43;;;;;;;10.37;9.10;;;20.90;99.90;;;;;;5020909;28;20432;-92
2022/09/05 03:00:12;;;;;;;12.00;9.60;;;20.90;99.90;;;;;;5018730;28;20835;-92
2022/09/05 03:02:56;;;;;;;13.30;8.70;;;20.80;99.90;;;;;;5019740;28;20483;-91
2022/09/05 03:05:27;;;;;;;10.87;9.77;;;20.80;99.90;;;;;;5020516;28;20471;-91
2022/09/05 03:08:21;;;;;;;11.83;10.10;;;20.80;99.90;;;;;;5021337;28;20443;-92
2022/09/05 03:11:11;;;;;;;10.00;9.00;;;20.80;99.90;;;;;;5019935;28;20490;-91
2022/09/05 03:13:55;;;;;;;9.60;8.60;;;20.80;99.90;;;;;;5037606;28;20507;-92
2022/09/05 03:16:43;;;;;;;10.47;9.30;;;20.80;99.90;;;;;;5037677;28;20419;-92
2022/09/05 03:19:17;;;;;;;10.47;9.47;;;20.80;99.90;;;;;;5020676;28;20498;-91
2022/09/05 03:22:06;;;;;;;11.80;9.07;;;20.80;99.90;;;;;;5020585;28;20435;-91
2022/09/05 03:25:00;;;;;;;11.57;10.30;;;20.80;99.90;;;;;;5020441;28;20466;-92
2022/09/05 03:27:53;;;;;;;10.87;9.83;;;20.80;99.90;;;;;;5043549;28;20446;-91
2022/09/05 03:30:20;;;;;;;12.63;10.43;;;20.70;99.90;;;;;;5040017;28;20447;-92
2022/09/05 03:33:17;;;;;;;14.03;10.63;;;20.70;99.90;;;;;;5056211;28;20989;-92
2022/09/05 03:36:17;;;;;;;11.73;9.90;;;20.70;99.90;;;;;;5037521;28;20489;-92
2022/09/05 03:39:10;;;;;;;10.10;9.07;;;20.70;99.90;;;;;;5037757;28;20434;-91
2022/09/05 03:42:00;;;;;;;10.93;9.30;;;20.70;99.90;;;;;;5038623;28;20574;-92
2022/09/05 03:44:38;;;;;;;12.20;9.60;;;20.70;99.90;;;;;;5057243;28;20553;-91
2022/09/05 03:47:29;;;;;;;11.50;10.30;;;20.70;99.90;;;;;;5040040;28;20446;-91
2022/09/05 03:50:19;;;;;;;13.33;10.70;;;20.60;99.90;;;;;;5046999;28;20461;-91
2022/09/05 03:53:14;;;;;;;12.73;9.90;;;20.60;99.90;;;;;;5041482;28;20435;-92
2022/09/05 03:55:52;;;;;;;11.40;9.47;;;20.60;99.90;;;;;;5040183;28;20450;-91
2022/09/05 03:58:51;;;;;;;10.60;9.50;;;20.60;99.90;;;;;;5041518;28;20431;-91
2022/09/05 04:01:34;;;;;;;10.90;9.43;;;20.60;99.90;;;;;;5038061;28;20465;-91
2022/09/05 04:04:05;;;;;;;12.23;9.50;;;20.60;99.90;;;;;;5037681;28;20470;-91
2022/09/05 04:06:40;;;;;;;12.07;10.37;;;20.60;99.90;;;;;;5038094;28;20421;-91
2022/09/05 04:09:32;;;;;;;31.50;21.13;;;20.60;99.90;;;;;;5055402;28;20476;-91
2022/09/05 04:12:11;;;;;;;37.00;24.27;;;20.50;99.90;;;;;;5010360;28;20513;-91
2022/09/05 04:14:45;;;;;;;20.63;17.00;;;20.60;99.90;;;;;;5036981;28;20430;-91
2022/09/05 04:17:28;;;;;;;12.77;10.30;;;20.60;99.90;;;;;;5038509;28;20516;-91
2022/09/05 04:20:09;;;;;;;12.07;10.70;;;20.60;99.90;;;;;;5039707;28;20431;-91
2022/09/05 04:23:06;;;;;;;12.40;11.13;;;20.60;99.90;;;;;;5040668;28;20470;-91
2022/09/05 04:26:06;;;;;;;13.63;11.80;;;20.60;99.90;;;;;;5045074;28;20476;-92
2022/09/05 04:28:38;;;;;;;137.53;78.13;;;20.60;99.90;;;;;;5038765;28;20464;-91
2022/09/05 04:31:25;;;;;;;27.60;19.87;;;20.60;99.90;;;;;;5058693;28;20498;-91
2022/09/05 04:34:02;;;;;;;15.60;12.70;;;20.50;99.90;;;;;;5060479;28;20466;-91
2022/09/05 04:36:34;;;;;;;12.47;10.40;;;20.60;99.90;;;;;;5057312;28;20425;-91
2022/09/05 04:39:20;;;;;;;11.53;10.33;;;20.60;99.90;;;;;;5034492;28;20513;-92
2022/09/05 04:41:50;;;;;;;10.10;9.10;;;20.60;99.90;;;;;;5047230;28;20435;-92
2022/09/05 04:44:25;;;;;;;15.70;10.60;;;20.60;99.90;;;;;;5057847;28;20532;-92
2022/09/05 04:46:55;;;;;;;11.03;9.93;;;20.60;99.90;;;;;;5026198;28;20431;-92
2022/09/05 04:49:31;;;;;;;11.20;10.07;;;20.60;99.90;;;;;;5019103;28;20956;-90
2022/09/05 04:52:15;;;;;;;12.67;10.30;;;20.60;99.90;;;;;;5021452;28;20434;-91
2022/09/05 04:54:55;;;;;;;12.93;11.53;;;20.60;99.90;;;;;;5022276;28;20443;-90
2022/09/05 04:57:41;;;;;;;13.43;11.40;;;20.60;99.90;;;;;;5022076;28;20792;-91
2022/09/05 05:00:20;;;;;;;14.33;12.57;;;20.50;99.90;;;;;;5019432;28;20435;-91
2022/09/05 05:02:52;;;;;;;13.43;11.30;;;20.50;99.90;;;;;;5019940;28;20543;-91
2022/09/05 05:05:35;;;;;;;11.80;10.60;;;20.60;99.90;;;;;;5019420;28;20436;-91
2022/09/05 05:08:22;;;;;;;11.17;10.07;;;20.60;99.90;;;;;;5026879;28;20429;-92
2022/09/05 05:11:13;;;;;;;13.73;11.80;;;20.50;99.90;;;;;;5025688;28;20451;-91
2022/09/05 05:13:48;;;;;;;12.13;10.77;;;20.50;99.90;;;;;;4975364;28;20538;-91
2022/09/05 05:16:22;;;;;;;36.40;23.27;;;20.60;99.90;;;;;;5033549;28;20430;-91
2022/09/05 05:18:54;;;;;;;20.00;15.77;;;20.50;99.90;;;;;;5019350;28;21023;-92
2022/09/05 05:21:24;;;;;;;14.80;11.77;;;20.60;99.90;;;;;;5019885;28;20928;-92
2022/09/05 05:23:53;;;;;;;24.63;18.37;;;20.60;99.90;;;;;;5019573;28;20471;-93
2022/09/05 05:26:39;;;;;;;14.50;12.53;;;20.50;99.90;;;;;;5033102;28;20462;-92
2022/09/05 05:29:09;;;;;;;12.37;10.47;;;20.60;99.90;;;;;;5018496;28;20489;-92
2022/09/05 05:31:44;;;;;;;11.83;10.63;;;20.60;99.90;;;;;;5045332;28;20837;-94
2022/09/05 05:34:45;;;;;;;11.90;10.70;;;20.60;99.90;;;;;;5038698;28;20520;-95
2022/09/05 05:37:40;;;;;;;57.63;36.40;;;20.70;99.90;;;;;;5028978;28;20465;-95
2022/09/05 05:40:18;;;;;;;43.03;27.47;;;20.70;99.90;;;;;;5060495;28;20480;-94
2022/09/05 05:42:45;;;;;;;22.93;15.00;;;20.70;99.90;;;;;;5048207;28;20447;-94
2022/09/05 05:45:28;;;;;;;17.80;12.50;;;20.70;99.90;;;;;;5039169;28;20439;-94
2022/09/05 05:48:23;;;;;;;17.87;10.97;;;20.70;99.90;;;;;;5054564;28;20456;-93
2022/09/05 05:51:14;;;;;;;11.67;10.50;;;20.80;99.90;;;;;;5036594;28;20497;-95
2022/09/05 05:54:07;;;;;;;11.70;10.27;;;20.80;99.90;;;;;;5036417;28;20932;-89
2022/09/05 05:57:02;;;;;;;14.17;10.70;;;20.80;99.90;;;;;;5047270;28;20951;-94
2022/09/05 05:59:36;;;;;;;11.77;10.53;;;20.80;99.90;;;;;;4986058;28;20465;-95
2022/09/05 06:02:20;;;;;;;12.47;10.17;;;20.90;99.90;;;;;;5038067;28;20423;-90
2022/09/05 06:05:16;;;;;;;12.70;11.40;;;20.90;99.90;;;;;;5035367;28;20963;-92
2022/09/05 06:08:01;;;;;;;12.80;11.50;;;20.90;99.90;;;;;;5053047;28;20440;-90
2022/09/05 06:11:01;;;;;;;12.10;10.63;;;21.00;99.90;;;;;;5018769;28;20830;-96
2022/09/05 06:14:08;;;;;;;11.03;9.90;;;21.00;99.90;;;;;;5051700;28;20422;-96
2022/09/05 06:16:34;;;;;;;13.77;10.67;;;21.10;99.90;;;;;;4965659;28;20442;-96
2022/09/05 06:19:34;;;;;;;11.77;10.57;;;21.10;99.90;;;;;;5046070;28;20511;-95
2022/09/05 06:22:38;;;;;;;360.73;204.80;;;21.20;99.90;;;;;;5017968;28;20225;-95
2022/09/05 06:25:39;;;;;;;94.50;54.63;;;21.20;99.90;;;;;;5039012;28;20490;-95
2022/09/05 06:28:42;;;;;;;13.30;11.90;;;21.30;99.90;;;;;;5018015;28;20990;-92
2022/09/05 06:31:23;;;;;;;13.30;11.40;;;21.30;99.90;;;;;;5031610;28;20494;-90
2022/09/05 06:34:27;;;;;;;11.73;10.47;;;21.40;99.90;;;;;;5022472;28;20424;-96
2022/09/05 06:37:05;;;;;;;13.00;11.70;;;21.40;99.90;;;;;;5013795;28;20436;-95
2022/09/05 06:39:49;;;;;;;15.30;9.87;;;21.40;99.90;;;;;;5016684;28;20490;-90
2022/09/05 06:42:37;;;;;;;13.30;11.43;;;21.50;99.90;;;;;;5034990;28;20460;-94
2022/09/05 06:45:23;;;;;;;13.60;11.27;;;21.60;99.90;;;;;;5023718;28;20530;-89
2022/09/05 06:47:53;;;;;;;12.90;11.40;;;21.60;99.90;;;;;;5004672;28;20444;-95
2022/09/05 06:50:22;;;;;;;11.60;10.50;;;21.70;99.90;;;;;;5020099;28;20439;-90
2022/09/05 06:52:53;;;;;;;11.97;9.90;;;21.70;99.90;;;;;;5011362;28;20496;-90
2022/09/05 06:55:41;;;;;;;11.40;10.30;;;21.80;99.90;;;;;;5003834;28;20527;-95
2022/09/05 06:58:44;;;;;;;11.53;10.30;;;21.80;99.90;;;;;;5011590;28;20522;-90
2022/09/05 07:01:12;;;;;;;9.57;8.67;;;21.90;99.90;;;;;;5014277;28;20988;-95
2022/09/05 07:04:12;;;;;;;11.73;9.90;;;22.00;99.90;;;;;;5035521;28;20497;-95
2022/09/05 07:06:55;;;;;;;9.63;8.30;;;22.10;99.90;;;;;;5032494;28;20436;-91
2022/09/05 07:09:30;;;;;;;11.23;10.03;;;22.10;99.90;;;;;;5017738;28;20444;-90
2022/09/05 07:12:13;;;;;;;10.50;9.37;;;22.20;99.90;;;;;;5017714;28;20447;-91
2022/09/05 07:15:05;;;;;;;11.30;8.93;;;22.30;99.90;;;;;;5015131;28;21012;-90
2022/09/05 07:17:46;;;;;;;459.83;305.97;;;22.40;99.90;;;;;;5028628;28;20447;-96
2022/09/05 07:20:34;;;;;;;61.40;42.23;;;22.40;99.90;;;;;;5002833;28;20996;-96
2022/09/05 07:23:18;;;;;;;15.60;12.80;;;22.50;99.90;;;;;;5010984;28;20844;-95
2022/09/05 07:25:48;;;;;;;11.80;10.03;;;22.60;99.90;;;;;;5043100;28;20478;-95
2022/09/05 07:28:18;;;;;;;11.37;8.70;;;22.70;99.90;;;;;;5037748;28;20514;-90
2022/09/05 07:30:56;;;;;;;10.17;8.13;;;22.70;99.90;;;;;;5037636;28;20443;-90
2022/09/05 07:33:33;;;;;;;9.50;8.23;;;22.80;99.90;;;;;;5034568;28;20527;-90
2022/09/05 07:36:13;;;;;;;12.40;9.70;;;22.90;99.90;;;;;;5036354;28;20432;-95
2022/09/05 07:38:39;;;;;;;9.70;7.70;;;22.90;99.90;;;;;;5035321;28;20429;-90
2022/09/05 07:41:19;;;;;;;9.77;8.50;;;23.00;99.90;;;;;;5033174;28;20439;-94
2022/09/05 07:43:47;;;;;;;9.40;8.20;;;23.10;99.90;;;;;;5035948;28;20473;-89
2022/09/05 07:46:22;;;;;;;11.37;9.40;;;23.20;99.90;;;;;;5046791;28;20885;-90
2022/09/05 07:49:13;;;;;;;9.20;8.33;;;23.20;99.90;;;;;;5044556;28;20436;-95
2022/09/05 07:51:53;;;;;;;10.00;8.57;;;23.30;99.90;;;;;;5035046;28;20420;-90
2022/09/05 07:54:25;;;;;;;7.63;6.90;;;23.40;99.90;;;;;;5052442;28;20433;-95
2022/09/05 07:56:54;;;;;;;10.60;8.20;;;23.40;99.90;;;;;;5040190;28;21253;-96
2022/09/05 07:59:22;;;;;;;7.80;7.00;;;23.50;99.90;;;;;;5042705;28;20464;-90
2022/09/05 08:01:52;;;;;;;7.37;6.67;;;23.60;99.90;;;;;;5039291;28;20434;-90
2022/09/05 08:04:29;;;;;;;7.10;6.40;;;23.60;99.90;;;;;;5050548;28;20469;-95
2022/09/05 08:07:03;;;;;;;6.53;5.93;;;23.70;99.90;;;;;;5033498;28;20765;-95
2022/09/05 08:09:29;;;;;;;714.40;364.50;;;23.80;99.90;;;;;;5036658;28;20459;-90
2022/09/05 08:12:00;;;;;;;24.57;18.30;;;23.80;99.90;;;;;;5034083;28;20454;-90
2022/09/05 08:14:41;;;;;;;8.27;7.47;;;23.90;99.90;;;;;;5053219;28;20216;-90
2022/09/05 08:17:12;;;;;;;8.43;7.53;;;24.00;99.90;;;;;;5036928;28;20441;-96
2022/09/05 08:19:40;;;;;;;6.43;5.83;;;24.10;99.90;;;;;;5039045;28;20563;-95
2022/09/05 08:22:12;;;;;;;7.40;6.77;;;24.10;99.90;;;;;;5029120;28;20450;-90
2022/09/05 08:24:54;;;;;;;6.20;5.60;;;24.20;99.90;;;;;;5035374;28;20478;-90
2022/09/05 08:27:25;;;;;;;6.97;6.20;;;24.30;99.90;;;;;;5065274;28;21020;-90
2022/09/05 08:29:59;;;;;;;6.57;5.87;;;24.40;99.90;;;;;;5064995;28;20437;-96
2022/09/05 08:32:40;;;;;;;7.00;6.30;;;24.40;99.90;;;;;;5051638;28;20443;-94
2022/09/05 08:35:12;;;;;;;8.57;6.80;;;24.60;99.90;;;;;;5040225;28;20462;-90
2022/09/05 08:37:39;;;;;;;7.50;6.80;;;24.70;99.90;;;;;;5034944;28;20439;-96
2022/09/05 08:40:25;;;;;;;6.30;5.80;;;25.10;99.90;;;;;;5035698;28;20549;-96
2022/09/05 08:42:58;;;;;;;9.27;6.40;;;25.80;99.90;;;;;;5027349;28;20485;-90
2022/09/05 08:45:29;;;;;;;6.20;5.60;;;26.60;99.90;;;;;;5051363;28;20442;-90
2022/09/05 08:48:05;;;;;;;6.00;5.50;;;27.50;99.90;;;;;;5035392;28;20817;-91
2022/09/05 08:50:56;;;;;;;7.53;6.83;;;28.10;99.90;;;;;;5064623;28;20442;-95
2022/09/05 08:53:45;;;;;;;6.00;5.40;;;28.70;99.90;;;;;;5069401;28;20426;-94
2022/09/05 08:56:20;;;;;;;6.40;5.80;;;29.00;99.90;;;;;;5030614;28;20459;-95
2022/09/05 08:58:59;;;;;;;6.47;5.87;;;28.90;99.90;;;;;;5043483;28;20436;-90
2022/09/05 09:01:42;;;;;;;5.87;5.37;;;28.70;99.90;;;;;;5044088;28;20426;-93
2022/09/05 09:04:23;;;;;;;7.30;5.50;;;28.30;99.90;;;;;;5046804;28;20848;-94
2022/09/05 09:06:57;;;;;;;5.70;5.10;;;28.00;99.90;;;;;;5036314;28;20441;-89
2022/09/05 09:09:38;;;;;;;5.07;4.67;;;27.80;99.90;;;;;;5037483;28;20443;-91
2022/09/05 09:12:16;;;;;;;6.13;5.57;;;27.50;99.90;;;;;;5035946;28;20530;-90
2022/09/05 09:15:14;;;;;;;5.60;5.10;;;27.30;99.90;;;;;;5031934;28;20543;-89
2022/09/05 09:17:44;;;;;;;5.73;5.10;;;27.20;99.90;;;;;;5034377;28;21025;-90
2022/09/05 09:20:50;;;;;;;14.07;6.20;;;27.00;99.90;;;;;;5035934;28;20442;-89
2022/09/05 09:23:31;;;;;;;4.90;4.53;;;26.90;99.90;;;;;;4985733;28;20479;-95
2022/09/05 09:26:20;;;;;;;5.53;5.10;;;26.70;99.90;;;;;;5018214;28;20475;-90
2022/09/05 09:29:05;;;;;;;7.70;5.10;;;26.60;99.90;;;;;;5040837;28;20945;-90
2022/09/05 09:31:57;;;;;;;6.50;5.90;;;26.60;99.90;;;;;;5037619;28;20560;-94
2022/09/05 09:34:25;;;;;;;4.87;4.47;;;26.40;99.90;;;;;;5047041;28;20472;-89
2022/09/05 09:37:13;;;;;;;6.53;5.60;;;26.30;99.90;;;;;;5056754;28;20525;-90
2022/09/05 09:40:13;;;;;;;5.50;5.00;;;26.20;99.90;;;;;;5058310;28;20486;-90
2022/09/05 09:43:41;;;;;;;5.93;4.10;;;26.20;99.90;;;;;;5047104;28;20442;-94
2022/09/05 09:46:23;;;;;;;5.00;4.60;;;26.20;99.90;;;;;;5043332;28;20446;-90
2022/09/05 09:49:28;;;;;;;5.83;5.33;;;26.10;99.90;;;;;;5040398;28;20448;-90
2022/09/05 09:52:21;;;;;;;8.33;4.60;;;26.10;99.90;;;;;;5053175;28;20990;-95
2022/09/05 09:55:08;;;;;;;4.80;4.40;;;26.10;99.90;;;;;;5041722;28;20439;-96
2022/09/05 09:57:54;;;;;;;4.87;4.47;;;26.10;99.90;;;;;;5031477;28;20424;-96
2022/09/05 10:00:22;;;;;;;4.30;3.93;;;26.00;99.90;;;;;;5042593;28;21067;-95
2022/09/05 10:03:09;;;;;;;7.13;4.63;;;26.00;99.90;;;;;;5040589;28;20474;-90
2022/09/05 10:05:54;;;;;;;4.40;4.10;;;26.10;99.90;;;;;;5014720;28;20447;-90
2022/09/05 10:08:34;;;;;;;4.50;4.10;;;26.00;99.90;;;;;;5028036;28;20446;-95
2022/09/05 10:11:35;;;;;;;5.27;4.67;;;26.10;99.90;;;;;;5056523;28;20446;-95
2022/09/05 10:14:32;;;;;;;5.37;4.27;;;26.00;99.90;;;;;;5020050;28;20431;-90
2022/09/05 10:17:27;;;;;;;5.07;4.57;;;26.00;99.90;;;;;;5034902;28;20434;-90
2022/09/05 10:20:30;;;;;;;4.33;4.03;;;26.00;99.90;;;;;;5032328;28;20435;-89
2022/09/05 10:23:30;;;;;;;4.07;3.77;;;26.00;99.90;;;;;;5052986;28;20521;-94
2022/09/05 10:26:23;;;;;;;6.10;4.60;;;26.10;99.90;;;;;;5034655;28;20466;-94
2022/09/05 10:28:59;;;;;;;5.63;4.60;;;26.10;99.90;;;;;;5050455;28;20748;-94
2022/09/05 10:31:55;;;;;;;4.80;4.40;;;26.00;99.90;;;;;;5053433;28;20923;-94
2022/09/05 10:34:24;;;;;;;4.73;4.30;;;26.00;99.90;;;;;;5034956;28;20899;-90
2022/09/05 10:36:53;;;;;;;5.40;4.37;;;26.00;99.90;;;;;;5034586;28;20427;-90
2022/09/05 10:39:31;;;;;;;4.70;4.30;;;26.10;99.90;;;;;;5037598;28;20455;-93
2022/09/05 10:42:33;;;;;;;4.57;4.17;;;26.10;99.90;;;;;;5032569;28;20434;-94
2022/09/05 10:45:03;;;;;;;5.10;4.27;;;26.10;99.90;;;;;;5051558;28;20470;-93
2022/09/05 10:47:47;;;;;;;4.90;4.50;;;26.10;99.90;;;;;;5046557;28;20446;-93
2022/09/05 10:50:33;;;;;;;4.57;4.17;;;26.20;99.90;;;;;;5048196;28;20451;-90
2022/09/05 10:53:04;;;;;;;6.33;4.83;;;26.10;99.90;;;;;;5052756;28;20959;-89
2022/09/05 10:56:01;;;;;;;4.50;4.20;;;26.10;99.90;;;;;;5035320;28;20438;-89
2022/09/05 10:58:51;;;;;;;4.00;3.70;;;26.10;99.90;;;;;;5055314;28;20521;-95
2022/09/05 11:01:40;;;;;;;5.57;3.70;;;26.10;99.90;;;;;;5061927;28;20454;-94
2022/09/05 11:04:25;;;;;;;4.57;4.10;;;26.10;99.90;;;;;;5029104;28;20493;-94
2022/09/05 11:06:52;;;;;;;4.23;3.50;;;26.10;99.90;;;;;;5064269;28;20907;-95
2022/09/05 11:09:36;;;;;;;3.40;3.10;;;26.10;99.90;;;;;;5031942;28;20841;-94
2022/09/05 11:12:21;;;;;;;4.17;3.87;;;26.10;99.90;;;;;;5034655;28;20439;-90
2022/09/05 11:14:56;;;;;;;4.20;3.90;;;26.20;99.90;;;;;;5051270;28;20453;-94
2022/09/05 11:17:53;;;;;;;3.30;3.10;;;26.20;99.90;;;;;;5030461;28;20443;-90
2022/09/05 11:20:51;;;;;;;4.40;4.03;;;26.20;99.90;;;;;;5043886;28;20833;-90
2022/09/05 11:23:44;;;;;;;4.30;3.90;;;26.30;99.90;;;;;;5046200;28;20512;-94
2022/09/05 11:26:59;;;;;;;4.30;3.57;;;26.30;99.90;;;;;;5044105;28;20508;-90
2022/09/05 11:29:45;;;;;;;4.20;3.80;;;26.40;99.90;;;;;;5016590;28;20512;-90
2022/09/05 11:32:40;;;;;;;3.87;3.40;;;26.30;99.90;;;;;;5052759;28;20923;-94
2022/09/05 11:35:25;;;;;;;4.00;3.70;;;26.30;99.90;;;;;;5029021;28;20438;-94
2022/09/05 11:38:09;;;;;;;4.60;4.20;;;26.30;99.90;;;;;;5050503;28;20431;-90
2022/09/05 11:40:51;;;;;;;4.23;3.83;;;26.30;99.90;;;;;;5053298;28;20526;-90
2022/09/05 11:43:51;;;;;;;3.90;3.60;;;26.30;99.90;;;;;;5051967;28;20528;-94
2022/09/05 11:46:21;;;;;;;4.13;3.20;;;26.40;99.90;;;;;;5052922;28;20481;-93
2022/09/05 11:49:19;;;;;;;4.00;3.60;;;26.40;99.90;;;;;;5038308;28;21053;-94
2022/09/05 11:51:57;;;;;;;3.47;3.17;;;26.40;99.90;;;;;;5048495;28;20450;-90
2022/09/05 11:55:07;;;;;;;3.40;3.20;;;26.40;99.90;;;;;;5049237;28;20526;-90
2022/09/05 11:58:05;;;;;;;5.23;3.80;;;26.40;99.90;;;;;;5028261;28;20473;-89
2022/09/05 12:00:43;;;;;;;3.93;3.50;;;26.50;99.90;;;;;;5060049;28;20521;-94
2022/09/05 12:03:26;;;;;;;3.63;3.33;;;26.50;99.90;;;;;;5053521;28;21012;-94
2022/09/05 12:06:21;;;;;;;3.30;3.00;;;26.50;99.90;;;;;;5032464;28;20459;-95
2022/09/05 12:08:53;;;;;;;3.97;3.67;;;26.50;99.90;;;;;;5043134;28;20438;-94
2022/09/05 12:12:01;;;;;;;3.63;3.33;;;26.50;99.90;;;;;;5039236;28;20442;-91
2022/09/05 12:14:54;;;;;;;3.50;3.20;;;26.50;99.90;;;;;;5023578;28;20442;-90
2022/09/05 12:17:28;;;;;;;3.67;3.37;;;26.50;99.90;;;;;;5045909;28;20509;-90
2022/09/05 12:20:10;;;;;;;3.60;3.23;;;26.60;99.90;;;;;;5047384;28;20823;-89
2022/09/05 12:22:41;;;;;;;3.13;2.93;;;26.60;99.90;;;;;;5019274;28;20446;-94
2022/09/05 12:25:32;;;;;;;4.07;3.30;;;26.60;99.70;;;;;;5048183;28;20462;-90
2022/09/05 12:28:06;;;;;;;3.37;3.07;;;26.70;99.80;;;;;;5034458;28;20538;-90
2022/09/05 12:30:40;;;;;;;3.87;3.57;;;26.70;99.50;;;;;;5028577;28;20453;-90
2022/09/05 12:33:41;;;;;;;3.67;3.27;;;26.80;99.60;;;;;;5045212;28;21151;-95
2022/09/05 12:36:14;;;;;;;3.50;3.20;;;26.80;99.90;;;;;;5032667;28;20453;-93
2022/09/05 12:39:32;;;;;;;3.20;3.00;;;26.80;99.90;;;;;;5035386;28;20414;-96
2022/09/05 12:42:17;;;;;;;3.37;3.07;;;26.80;99.90;;;;;;5009742;28;20470;-90
2022/09/05 12:45:08;;;;;;;3.63;3.33;;;26.80;99.90;;;;;;5037058;28;20840;-89
2022/09/05 12:47:54;;;;;;;3.60;3.30;;;26.80;99.90;;;;;;5032777;28;20534;-91
2022/09/05 12:50:24;;;;;;;3.23;3.03;;;26.90;99.90;;;;;;5050832;28;20447;-90
2022/09/05 12:53:00;;;;;;;3.70;3.20;;;26.90;99.80;;;;;;5057254;28;20446;-90
2022/09/05 12:55:35;;;;;;;3.20;3.00;;;26.90;99.70;;;;;;5038192;28;20430;-95
2022/09/05 12:58:20;;;;;;;3.37;3.17;;;26.90;98.90;;;;;;5046580;28;20455;-94
2022/09/05 13:00:47;;;;;;;3.30;3.00;;;26.90;98.70;;;;;;5037049;28;20959;-94
2022/09/05 13:03:22;;;;;;;3.10;2.80;;;26.90;98.80;;;;;;5053017;28;20481;-89
2022/09/05 13:06:00;;;;;;;3.07;2.87;;;26.90;99.00;;;;;;5036277;28;20446;-89
2022/09/05 13:08:46;;;;;;;3.87;3.50;;;26.90;98.20;;;;;;5042822;28;20435;-94
2022/09/05 13:11:16;;;;;;;3.73;2.97;;;26.90;98.40;;;;;;5046110;28;20453;-90
2022/09/05 13:14:11;;;;;;;3.37;3.10;;;26.90;98.40;;;;;;5037706;28;20524;-95
2022/09/05 13:16:40;;;;;;;3.37;3.07;;;26.90;98.80;;;;;;5036668;28;20423;-94
2022/09/05 13:19:15;;;;;;;3.57;3.27;;;26.90;99.20;;;;;;5065478;28;20434;-94
2022/09/05 13:21:44;;;;;;;3.03;2.83;;;26.90;98.90;;;;;;5035589;28;21049;-89
2022/09/05 13:24:16;;;;;;;3.00;2.80;;;26.90;98.30;;;;;;5036624;28;20474;-90
2022/09/05 13:26:55;;;;;;;3.67;3.30;;;27.00;98.90;;;;;;5054469;28;20817;-89
2022/09/05 13:29:24;;;;;;;2.80;2.60;;;27.00;98.50;;;;;;5051570;28;20537;-95
2022/09/05 13:31:53;;;;;;;3.30;2.97;;;27.00;98.70;;;;;;5039275;28;20578;-94
2022/09/05 13:34:22;;;;;;;4.73;2.90;;;27.00;98.30;;;;;;5051639;28;20459;-95
2022/09/05 13:37:02;;;;;;;3.20;2.90;;;27.00;99.00;;;;;;5041324;28;20477;-93
2022/09/05 13:39:47;;;;;;;3.33;3.13;;;27.00;98.20;;;;;;5064208;28;20468;-90
2022/09/05 13:42:18;;;;;;;3.90;3.60;;;27.10;99.40;;;;;;5044467;28;20434;-94
2022/09/05 13:44:45;;;;;;;3.20;3.00;;;27.10;99.10;;;;;;5056094;28;20471;-91
2022/09/05 13:47:20;;;;;;;3.30;3.10;;;27.10;99.30;;;;;;5039873;28;20439;-94
2022/09/05 13:50:03;;;;;;;3.80;3.33;;;27.10;99.10;;;;;;5046523;28;20910;-96
2022/09/05 13:52:36;;;;;;;3.30;3.00;;;27.10;99.00;;;;;;5036801;28;20463;-90
2022/09/05 13:55:05;;;;;;;4.57;3.80;;;27.10;98.90;;;;;;5053502;28;20492;-94
2022/09/05 13:57:57;;;;;;;5.47;4.23;;;27.10;98.20;;;;;;5036709;28;20443;-90
2022/09/05 14:00:37;;;;;;;3.90;3.57;;;27.00;98.20;;;;;;5041742;28;20493;-91